Time;durP1;ratioP1;P1;durP2;ratioP2;P2;SDS_P1;SDS_P2;PMS_P1;PMS_P2;Temp;Humidity;BMP_temperature;BMP_pressure;BME280_temperature;BME280_humidity;BME280_pressure;Samples;Min_cycle;Max_cycle;Signal;HPM_P1;HPM_P2
2023/11/03 00:00:05;;;;;;;1.50;1.00;;;22.50;41.60;;;;;;6181844;23;20232;-40
2023/11/03 00:02:31;;;;;;;2.47;1.40;;;22.50;41.60;;;;;;6178066;23;20249;-40
2023/11/03 00:05:00;;;;;;;1.35;1.00;;;22.50;41.60;;;;;;6182736;23;20174;-40
2023/11/03 00:07:26;;;;;;;3.08;1.52;;;22.50;41.60;;;;;;6183073;23;20174;-40
2023/11/03 00:09:53;;;;;;;2.00;1.58;;;22.50;41.60;;;;;;6183412;23;20570;-40
2023/11/03 00:12:20;;;;;;;1.58;1.48;;;22.40;41.50;;;;;;6182307;23;20277;-40
2023/11/03 00:14:47;;;;;;;2.67;1.30;;;22.50;41.60;;;;;;6183241;23;20206;-40
2023/11/03 00:17:14;;;;;;;1.40;1.00;;;22.50;41.60;;;;;;6183032;23;20197;-40
2023/11/03 00:19:41;;;;;;;1.63;1.17;;;22.40;41.50;;;;;;6180021;23;20229;-39
2023/11/03 00:22:07;;;;;;;1.73;1.40;;;22.50;41.60;;;;;;6180502;23;20256;-39
2023/11/03 00:24:34;;;;;;;1.70;0.90;;;22.50;41.60;;;;;;6182628;23;20258;-40
2023/11/03 00:27:00;;;;;;;2.45;1.02;;;22.50;41.60;;;;;;6184068;23;20178;-40
2023/11/03 00:29:27;;;;;;;1.45;0.90;;;22.50;41.60;;;;;;6183310;23;20245;-39
2023/11/03 00:31:53;;;;;;;1.75;1.10;;;22.50;41.60;;;;;;6180897;23;20249;-39
2023/11/03 00:34:20;;;;;;;3.90;1.27;;;22.50;41.60;;;;;;6181665;23;20683;-40
2023/11/03 00:36:47;;;;;;;1.23;1.13;;;22.40;41.50;;;;;;6179423;23;20179;-40
2023/11/03 00:39:13;;;;;;;1.90;1.08;;;22.40;41.50;;;;;;6182529;23;20179;-40
2023/11/03 00:41:40;;;;;;;1.27;1.17;;;22.40;41.50;;;;;;6184217;23;20216;-40
2023/11/03 00:44:07;;;;;;;1.13;1.02;;;22.50;41.60;;;;;;6180197;23;20253;-40
2023/11/03 00:46:33;;;;;;;0.90;0.90;;;22.50;41.60;;;;;;6181422;23;20253;-40
2023/11/03 00:49:01;;;;;;;0.90;0.80;;;22.50;41.60;;;;;;6182368;23;20248;-39
2023/11/03 00:51:28;;;;;;;1.20;1.08;;;22.40;41.50;;;;;;6182938;23;20236;-40
2023/11/03 00:53:54;;;;;;;1.42;0.88;;;22.40;41.50;;;;;;6178116;23;20277;-39
2023/11/03 00:56:21;;;;;;;1.90;1.23;;;22.50;41.60;;;;;;6181479;23;20175;-40
2023/11/03 00:58:48;;;;;;;1.55;1.45;;;22.40;41.50;;;;;;6181640;23;20183;-40
2023/11/03 01:01:14;;;;;;;1.35;1.13;;;22.50;41.60;;;;;;6183012;23;20206;-40
2023/11/03 01:03:41;;;;;;;1.08;1.00;;;22.40;41.50;;;;;;6183782;23;20269;-40
2023/11/03 01:06:07;;;;;;;1.70;1.00;;;22.40;41.50;;;;;;6182993;23;20182;-40
2023/11/03 01:08:34;;;;;;;0.98;0.98;;;22.40;41.50;;;;;;6179796;23;20253;-40
2023/11/03 01:11:01;;;;;;;1.02;0.95;;;22.40;41.50;;;;;;6179124;23;20638;-39
2023/11/03 01:13:28;;;;;;;1.48;1.13;;;22.40;41.50;;;;;;6182537;23;20201;-40
2023/11/03 01:15:54;;;;;;;1.45;0.90;;;22.40;41.50;;;;;;6181837;23;20175;-40
2023/11/03 01:18:21;;;;;;;2.15;1.00;;;22.40;41.50;;;;;;6182625;23;20205;-40
2023/11/03 01:20:48;;;;;;;1.85;1.00;;;22.40;41.50;;;;;;6184000;23;20261;-37
2023/11/03 01:23:15;;;;;;;1.30;1.20;;;22.40;41.50;;;;;;6181094;23;20194;-40
2023/11/03 01:25:43;;;;;;;1.23;1.10;;;22.40;41.50;;;;;;6182936;23;20175;-38
2023/11/03 01:28:09;;;;;;;1.35;1.08;;;22.50;41.60;;;;;;6185246;23;20178;-39
2023/11/03 01:30:36;;;;;;;1.30;1.20;;;22.50;41.60;;;;;;6181734;23;20196;-38
2023/11/03 01:33:04;;;;;;;1.95;1.08;;;22.50;41.60;;;;;;6182701;23;20201;-40
2023/11/03 01:35:31;;;;;;;0.98;0.85;;;22.40;42.20;;;;;;6184000;23;20178;-40
2023/11/03 01:37:57;;;;;;;1.67;1.00;;;22.50;41.60;;;;;;6183687;23;20178;-40
2023/11/03 01:40:24;;;;;;;1.20;1.10;;;22.50;41.60;;;;;;6184929;23;20663;-40
2023/11/03 01:42:52;;;;;;;2.42;1.00;;;22.40;41.50;;;;;;6181457;23;20202;-40
2023/11/03 01:45:20;;;;;;;1.55;1.00;;;22.40;41.50;;;;;;6184408;23;20558;-40
2023/11/03 01:47:46;;;;;;;0.82;0.80;;;22.40;41.50;;;;;;6182710;23;20508;-38
2023/11/03 01:50:13;;;;;;;2.25;0.90;;;22.40;41.50;;;;;;6184737;23;20538;-39
2023/11/03 01:52:39;;;;;;;1.10;1.00;;;22.40;41.50;;;;;;6184382;23;20608;-40
2023/11/03 01:55:06;;;;;;;0.80;0.80;;;22.40;41.50;;;;;;6185079;23;20182;-40
2023/11/03 01:57:32;;;;;;;0.80;0.80;;;22.50;41.60;;;;;;6183770;23;20183;-40
2023/11/03 01:59:59;;;;;;;0.80;0.80;;;22.40;41.50;;;;;;6184760;23;20206;-40
2023/11/03 02:02:25;;;;;;;1.55;0.85;;;22.40;41.50;;;;;;6180785;23;20888;-37
2023/11/03 02:04:52;;;;;;;1.50;1.00;;;22.40;41.50;;;;;;6184195;23;20257;-40
2023/11/03 02:07:18;;;;;;;0.90;0.90;;;22.40;41.50;;;;;;6183530;23;20175;-40
2023/11/03 02:09:45;;;;;;;1.77;0.80;;;22.40;41.50;;;;;;6184265;23;20281;-40
2023/11/03 02:12:12;;;;;;;1.35;1.05;;;22.40;41.50;;;;;;6184945;23;20201;-40
2023/11/03 02:14:38;;;;;;;1.35;1.00;;;22.40;41.50;;;;;;6184647;23;20175;-40
2023/11/03 02:17:05;;;;;;;1.10;0.98;;;22.40;41.50;;;;;;6183584;23;20213;-40
2023/11/03 02:19:31;;;;;;;0.88;0.88;;;22.40;41.50;;;;;;6181434;23;20262;-40
2023/11/03 02:21:57;;;;;;;0.88;0.88;;;22.40;41.50;;;;;;6182004;23;20229;-40
2023/11/03 02:24:24;;;;;;;1.10;0.88;;;22.40;41.50;;;;;;6184581;23;20667;-40
2023/11/03 02:26:50;;;;;;;0.90;0.90;;;22.40;41.50;;;;;;6183784;23;20640;-40
2023/11/03 02:29:17;;;;;;;0.82;0.82;;;22.40;41.50;;;;;;6183165;23;20588;-40
2023/11/03 02:31:44;;;;;;;1.27;1.00;;;22.40;41.50;;;;;;6184109;23;20573;-41
2023/11/03 02:34:10;;;;;;;0.98;0.90;;;22.40;41.50;;;;;;6183924;23;20253;-40
2023/11/03 02:36:36;;;;;;;1.77;1.13;;;22.40;41.50;;;;;;6180357;23;20179;-40
2023/11/03 02:39:02;;;;;;;1.25;0.93;;;22.50;41.60;;;;;;6183826;23;20628;-40
2023/11/03 02:41:29;;;;;;;1.30;0.98;;;22.50;41.60;;;;;;6184184;23;20186;-39
2023/11/03 02:43:55;;;;;;;1.50;1.00;;;22.50;41.60;;;;;;6183366;23;20571;-40
2023/11/03 02:46:23;;;;;;;0.93;0.90;;;22.50;41.60;;;;;;6184181;23;20206;-39
2023/11/03 02:48:50;;;;;;;0.95;0.95;;;22.50;41.60;;;;;;6183454;23;20202;-40
2023/11/03 02:51:16;;;;;;;1.27;0.85;;;22.40;41.50;;;;;;6184619;23;20178;-40
2023/11/03 02:53:42;;;;;;;1.27;1.00;;;22.40;41.60;;;;;;6182719;23;20260;-40
2023/11/03 02:56:09;;;;;;;2.15;1.10;;;22.40;41.60;;;;;;6183707;23;20253;-41
2023/11/03 02:58:35;;;;;;;1.58;0.82;;;22.40;41.70;;;;;;6180845;23;20214;-40
2023/11/03 03:01:02;;;;;;;1.27;1.00;;;22.40;41.80;;;;;;6182542;23;20258;-38
2023/11/03 03:03:28;;;;;;;1.40;0.90;;;22.40;41.70;;;;;;6182357;23;20273;-40
2023/11/03 03:05:55;;;;;;;0.88;0.82;;;22.40;41.70;;;;;;6181622;23;20701;-40
2023/11/03 03:08:21;;;;;;;0.90;0.90;;;22.40;41.70;;;;;;6182529;23;20531;-40
2023/11/03 03:10:48;;;;;;;0.93;0.85;;;22.40;41.60;;;;;;6184515;23;20681;-40
2023/11/03 03:13:14;;;;;;;0.70;0.70;;;22.40;41.70;;;;;;6184251;23;20198;-40
2023/11/03 03:15:40;;;;;;;1.08;0.80;;;22.40;41.70;;;;;;6183349;23;20179;-40
2023/11/03 03:18:06;;;;;;;0.80;0.80;;;22.40;41.60;;;;;;6182483;23;20558;-40
2023/11/03 03:20:33;;;;;;;1.10;1.02;;;22.40;41.60;;;;;;6180959;23;20273;-40
2023/11/03 03:22:59;;;;;;;1.30;0.85;;;22.40;41.70;;;;;;6181504;23;20320;-40
2023/11/03 03:25:26;;;;;;;2.03;0.93;;;22.40;41.60;;;;;;6183385;23;20559;-40
2023/11/03 03:27:55;;;;;;;2.28;1.00;;;22.40;41.70;;;;;;6183602;23;20210;-40
2023/11/03 03:30:22;;;;;;;1.25;0.80;;;22.40;41.70;;;;;;6179951;23;20499;-40
2023/11/03 03:32:48;;;;;;;0.93;0.90;;;22.40;41.70;;;;;;6183175;23;20276;-40
2023/11/03 03:35:14;;;;;;;2.30;0.90;;;22.40;41.70;;;;;;6182353;23;20182;-40
2023/11/03 03:37:41;;;;;;;2.13;0.85;;;22.40;41.80;;;;;;6183284;23;20253;-40
2023/11/03 03:40:07;;;;;;;1.85;0.80;;;22.40;41.90;;;;;;6183957;23;20253;-41
2023/11/03 03:42:34;;;;;;;0.80;0.80;;;22.40;41.80;;;;;;6183758;23;20226;-40
2023/11/03 03:45:00;;;;;;;1.08;0.98;;;22.40;41.70;;;;;;6183754;23;20197;-40
2023/11/03 03:47:27;;;;;;;2.42;0.90;;;22.50;41.70;;;;;;6178397;23;20277;-40
2023/11/03 03:49:53;;;;;;;1.30;0.90;;;22.50;41.60;;;;;;6181366;23;20298;-40
2023/11/03 03:52:20;;;;;;;2.40;1.00;;;22.50;41.60;;;;;;6183209;23;20269;-40
2023/11/03 03:54:46;;;;;;;0.82;0.70;;;22.50;41.60;;;;;;6183954;23;20253;-40
2023/11/03 03:57:13;;;;;;;0.98;0.90;;;22.50;41.60;;;;;;6181335;23;20213;-40
2023/11/03 03:59:39;;;;;;;0.90;0.82;;;22.50;41.60;;;;;;6183439;23;20679;-41
2023/11/03 04:02:06;;;;;;;1.55;0.90;;;22.50;41.60;;;;;;6183753;23;20199;-38
2023/11/03 04:04:32;;;;;;;1.48;0.90;;;22.40;41.50;;;;;;6180521;23;20258;-40
2023/11/03 04:06:59;;;;;;;2.05;0.95;;;22.40;41.50;;;;;;6181024;23;20253;-40
2023/11/03 04:09:25;;;;;;;0.95;0.95;;;22.40;41.60;;;;;;6183075;23;20671;-40
2023/11/03 04:11:52;;;;;;;2.33;0.90;;;22.40;41.60;;;;;;6183870;23;20194;-40
2023/11/03 04:14:18;;;;;;;1.08;0.90;;;22.40;41.70;;;;;;6184647;23;20253;-39
2023/11/03 04:16:45;;;;;;;1.98;1.00;;;22.40;41.80;;;;;;6182517;23;20631;-40
2023/11/03 04:19:11;;;;;;;1.55;1.08;;;22.40;41.80;;;;;;6181946;23;20277;-40
2023/11/03 04:21:38;;;;;;;2.75;1.00;;;22.40;41.80;;;;;;6179471;23;20253;-40
2023/11/03 04:24:04;;;;;;;1.75;1.17;;;22.40;41.80;;;;;;6182510;23;20258;-41
2023/11/03 04:26:31;;;;;;;1.05;0.95;;;22.40;41.80;;;;;;6182127;23;20262;-40
2023/11/03 04:28:57;;;;;;;1.20;1.10;;;22.40;41.80;;;;;;6181950;23;20175;-40
2023/11/03 04:31:24;;;;;;;1.13;1.02;;;22.40;41.80;;;;;;6183107;23;20269;-40
2023/11/03 04:33:51;;;;;;;1.00;0.90;;;22.40;41.80;;;;;;6183317;23;20185;-40
2023/11/03 04:36:18;;;;;;;3.10;1.25;;;22.40;41.80;;;;;;6183152;23;20174;-39
2023/11/03 04:38:44;;;;;;;1.98;0.98;;;22.40;41.80;;;;;;6180848;23;20179;-40
2023/11/03 04:41:11;;;;;;;1.20;1.00;;;22.40;41.80;;;;;;6181804;23;20214;-41
2023/11/03 04:43:41;;;;;;;1.75;1.45;;;22.40;41.80;;;;;;6182776;23;20178;-40
2023/11/03 04:46:08;;;;;;;1.05;1.00;;;22.40;41.80;;;;;;6182770;23;20241;-40
2023/11/03 04:48:35;;;;;;;0.90;0.90;;;22.40;41.80;;;;;;6181589;23;20178;-40
2023/11/03 04:51:02;;;;;;;0.93;0.90;;;22.40;41.80;;;;;;6180233;23;20206;-40
2023/11/03 04:53:28;;;;;;;1.30;1.00;;;22.40;41.70;;;;;;6183058;23;20538;-40
2023/11/03 04:55:55;;;;;;;0.80;0.80;;;22.50;41.80;;;;;;6183681;23;20273;-40
2023/11/03 04:58:21;;;;;;;0.88;0.82;;;22.40;41.70;;;;;;6179397;23;20196;-40
2023/11/03 05:00:49;;;;;;;2.15;0.88;;;22.50;41.80;;;;;;6179896;23;20179;-41
2023/11/03 05:03:15;;;;;;;1.08;0.80;;;22.40;41.70;;;;;;6179304;23;20178;-40
2023/11/03 05:05:42;;;;;;;0.90;0.90;;;22.50;41.80;;;;;;6182509;23;20543;-40
2023/11/03 05:08:09;;;;;;;1.00;0.90;;;22.40;41.70;;;;;;6181400;23;20182;-40
2023/11/03 05:10:35;;;;;;;1.15;1.02;;;22.40;41.70;;;;;;6182488;23;20281;-40
2023/11/03 05:13:02;;;;;;;3.95;0.80;;;22.40;41.80;;;;;;6181201;23;20273;-40
2023/11/03 05:15:29;;;;;;;1.48;0.90;;;22.50;41.80;;;;;;6183052;23;20179;-40
2023/11/03 05:17:55;;;;;;;1.30;1.08;;;22.40;41.80;;;;;;6183240;23;20260;-39
2023/11/03 05:20:22;;;;;;;0.70;0.70;;;22.40;41.80;;;;;;6179608;23;20566;-40
2023/11/03 05:22:49;;;;;;;1.10;0.93;;;22.40;41.80;;;;;;6177593;23;20214;-40
2023/11/03 05:25:15;;;;;;;1.42;0.90;;;22.40;41.80;;;;;;6180578;23;20257;-39
2023/11/03 05:27:42;;;;;;;2.15;0.90;;;22.40;41.90;;;;;;6183458;23;20707;-40
2023/11/03 05:30:09;;;;;;;1.25;0.77;;;22.40;41.90;;;;;;6183026;23;20229;-40
2023/11/03 05:32:35;;;;;;;1.27;0.85;;;22.40;41.90;;;;;;6179101;23;20612;-39
2023/11/03 05:35:03;;;;;;;1.00;0.90;;;22.40;41.90;;;;;;6181849;23;20269;-41
2023/11/03 05:37:30;;;;;;;1.02;0.95;;;22.40;41.90;;;;;;6182507;23;20261;-40
2023/11/03 05:39:56;;;;;;;1.50;0.90;;;22.40;41.90;;;;;;6183068;23;20210;-40
2023/11/03 05:42:23;;;;;;;1.25;0.70;;;22.40;41.90;;;;;;6181343;23;20273;-40
2023/11/03 05:44:49;;;;;;;1.85;1.00;;;22.40;41.90;;;;;;6182693;23;20216;-40
2023/11/03 05:47:15;;;;;;;0.93;0.90;;;22.40;41.90;;;;;;6182885;23;20257;-40
2023/11/03 05:49:42;;;;;;;1.23;1.13;;;22.40;41.90;;;;;;6181738;23;20663;-40
2023/11/03 05:52:08;;;;;;;1.10;0.77;;;22.40;41.90;;;;;;6177982;23;20654;-40
2023/11/03 05:54:35;;;;;;;0.85;0.70;;;22.40;41.90;;;;;;6181135;23;20255;-40
2023/11/03 05:57:01;;;;;;;1.10;1.00;;;22.40;41.90;;;;;;6182541;23;20253;-40
2023/11/03 05:59:28;;;;;;;1.17;0.90;;;22.40;41.90;;;;;;6182170;23;20213;-39
2023/11/03 06:01:54;;;;;;;2.17;1.15;;;22.40;41.80;;;;;;6179773;23;20571;-40
2023/11/03 06:04:21;;;;;;;2.42;0.88;;;22.40;41.90;;;;;;6182537;23;20179;-41
2023/11/03 06:06:48;;;;;;;1.00;0.90;;;22.40;41.80;;;;;;6183506;23;20202;-41
2023/11/03 06:09:15;;;;;;;1.17;0.90;;;22.50;41.90;;;;;;6179498;23;20179;-41
2023/11/03 06:11:42;;;;;;;1.13;1.00;;;22.40;41.80;;;;;;6180848;23;20210;-40
2023/11/03 06:14:08;;;;;;;0.70;0.70;;;22.40;41.80;;;;;;6182728;23;20257;-39
2023/11/03 06:16:35;;;;;;;0.98;0.98;;;22.40;41.80;;;;;;6184882;23;20174;-40
2023/11/03 06:19:02;;;;;;;4.70;1.13;;;22.50;41.90;;;;;;6182239;23;20609;-38
2023/11/03 06:21:28;;;;;;;0.90;0.77;;;22.50;41.90;;;;;;6182674;23;20207;-40
2023/11/03 06:23:55;;;;;;;1.17;0.88;;;22.50;41.90;;;;;;6183700;23;20179;-40
2023/11/03 06:26:21;;;;;;;1.17;1.08;;;22.40;41.80;;;;;;6180870;23;20644;-40
2023/11/03 06:28:48;;;;;;;1.42;0.95;;;22.40;41.90;;;;;;6183036;23;20210;-40
2023/11/03 06:31:14;;;;;;;1.30;1.10;;;22.40;41.90;;;;;;6179069;23;20345;-39
2023/11/03 06:33:41;;;;;;;0.80;0.80;;;22.40;41.90;;;;;;6183762;23;20257;-40
2023/11/03 06:36:07;;;;;;;1.10;0.88;;;22.40;42.00;;;;;;6184591;23;20257;-39
2023/11/03 06:38:34;;;;;;;0.90;0.90;;;22.40;42.00;;;;;;6183886;23;20184;-40
2023/11/03 06:41:00;;;;;;;1.33;1.15;;;22.40;42.00;;;;;;6184774;23;20277;-40
2023/11/03 06:43:27;;;;;;;0.80;0.80;;;22.40;42.00;;;;;;6183401;23;20174;-40
2023/11/03 06:45:54;;;;;;;1.20;0.90;;;22.40;42.10;;;;;;6184648;23;20178;-40
2023/11/03 06:48:20;;;;;;;0.63;0.63;;;22.40;42.10;;;;;;6182424;23;20201;-40
2023/11/03 06:50:47;;;;;;;0.95;0.80;;;22.40;42.10;;;;;;6182142;23;20281;-40
2023/11/03 06:53:13;;;;;;;1.45;1.17;;;22.40;42.10;;;;;;6181049;23;20185;-40
2023/11/03 06:55:41;;;;;;;0.90;0.90;;;22.40;42.10;;;;;;6183476;23;20210;-40
2023/11/03 06:58:07;;;;;;;1.10;0.90;;;22.40;42.10;;;;;;6184774;23;20628;-40
2023/11/03 07:00:34;;;;;;;0.80;0.80;;;22.40;42.10;;;;;;6180513;23;20588;-40
2023/11/03 07:03:00;;;;;;;0.80;0.80;;;22.40;42.10;;;;;;6180216;23;20179;-40
2023/11/03 07:05:27;;;;;;;1.40;0.73;;;22.40;42.10;;;;;;6182834;23;20217;-40
2023/11/03 07:07:53;;;;;;;1.05;0.95;;;22.40;42.10;;;;;;6184256;23;20179;-40
2023/11/03 07:10:20;;;;;;;0.80;0.80;;;22.40;42.00;;;;;;6184003;23;20230;-40
2023/11/03 07:12:47;;;;;;;2.55;1.20;;;22.40;42.00;;;;;;6182003;23;20277;-37
2023/11/03 07:15:14;;;;;;;0.70;0.70;;;22.40;42.00;;;;;;6180428;23;20210;-38
2023/11/03 07:17:41;;;;;;;1.38;1.27;;;22.40;42.30;;;;;;6180041;23;20814;-40
2023/11/03 07:20:08;;;;;;;1.63;1.00;;;22.40;42.90;;;;;;6176702;23;20690;-40
2023/11/03 07:22:34;;;;;;;0.98;0.88;;;22.40;42.90;;;;;;6179729;23;20210;-41
2023/11/03 07:25:02;;;;;;;2.63;1.20;;;22.40;42.80;;;;;;6181870;23;20262;-41
2023/11/03 07:27:28;;;;;;;3.60;1.13;;;22.40;42.90;;;;;;6184149;23;20174;-40
2023/11/03 07:29:55;;;;;;;4.47;1.40;;;22.30;43.00;;;;;;6183568;23;20261;-44
2023/11/03 07:32:22;;;;;;;5.50;1.05;;;22.30;43.00;;;;;;6183392;23;20221;-40
2023/11/03 07:34:49;;;;;;;3.78;0.98;;;22.30;43.10;;;;;;6179803;23;20524;-41
2023/11/03 07:37:17;;;;;;;2.55;0.93;;;22.30;43.20;;;;;;6181345;23;20257;-37
2023/11/03 07:39:44;;;;;;;1.48;1.30;;;22.30;43.10;;;;;;6178037;23;20218;-40
2023/11/03 07:42:10;;;;;;;2.30;1.00;;;22.30;43.10;;;;;;6179056;23;20205;-41
2023/11/03 07:44:37;;;;;;;2.25;1.00;;;22.30;43.20;;;;;;6178630;23;20542;-40
2023/11/03 07:47:06;;;;;;;4.70;1.00;;;22.30;43.10;;;;;;6182641;23;20179;-41
2023/11/03 07:49:33;;;;;;;2.42;1.30;;;22.30;43.10;;;;;;6182266;23;20182;-41
2023/11/03 07:51:59;;;;;;;2.00;0.90;;;22.30;43.10;;;;;;6181917;23;20236;-40
2023/11/03 07:54:26;;;;;;;1.35;1.02;;;22.30;43.20;;;;;;6180670;23;20166;-41
2023/11/03 07:56:52;;;;;;;1.38;0.90;;;22.30;43.20;;;;;;6182243;23;20217;-41
2023/11/03 07:59:19;;;;;;;2.25;1.40;;;22.30;43.20;;;;;;6178727;23;20258;-40
2023/11/03 08:01:46;;;;;;;1.35;1.00;;;22.30;43.30;;;;;;6177036;23;20213;-41
2023/11/03 08:04:13;;;;;;;1.60;0.90;;;22.30;43.20;;;;;;6178538;23;20179;-40
2023/11/03 08:06:46;;;;;;;1.85;0.90;;;22.20;43.10;;;;;;6177924;23;20181;-39
2023/11/03 08:09:14;;;;;;;2.72;0.90;;;22.20;43.10;;;;;;6181462;23;20785;-39
2023/11/03 08:11:40;;;;;;;3.15;1.08;;;22.30;42.90;;;;;;6181494;23;20216;-38
2023/11/03 08:14:07;;;;;;;2.33;1.00;;;22.40;43.00;;;;;;6183015;23;20214;-40
2023/11/03 08:16:33;;;;;;;5.63;1.40;;;22.40;43.00;;;;;;6181464;23;20261;-40
2023/11/03 08:19:00;;;;;;;4.68;1.40;;;22.40;42.90;;;;;;6179274;23;20269;-40
2023/11/03 08:21:26;;;;;;;3.83;1.65;;;22.40;42.50;;;;;;6175532;23;20731;-37
2023/11/03 08:23:52;;;;;;;4.43;1.30;;;22.10;41.80;;;;;;6181630;23;20703;-39
2023/11/03 08:26:19;;;;;;;4.43;1.45;;;22.20;41.80;;;;;;6179941;23;20213;-37
2023/11/03 08:28:46;;;;;;;7.63;2.00;;;22.10;41.80;;;;;;6180659;23;20237;-37
2023/11/03 08:31:13;;;;;;;4.65;1.45;;;22.20;42.60;;;;;;6181451;23;20210;-37
2023/11/03 08:33:40;;;;;;;10.55;2.45;;;22.20;42.40;;;;;;6181336;23;20178;-40
2023/11/03 08:36:06;;;;;;;5.82;2.08;;;22.20;43.50;;;;;;6179944;23;20185;-41
2023/11/03 08:38:33;;;;;;;5.30;1.73;;;22.20;45.70;;;;;;6180311;23;20265;-38
2023/11/03 08:40:59;;;;;;;7.15;1.90;;;22.10;47.40;;;;;;6176478;23;20285;-39
2023/11/03 08:43:26;;;;;;;5.47;1.85;;;22.00;46.50;;;;;;6182759;23;20228;-38
2023/11/03 08:45:52;;;;;;;5.25;2.08;;;22.00;45.90;;;;;;6182754;23;20266;-38
2023/11/03 08:48:18;;;;;;;4.20;1.60;;;22.00;45.90;;;;;;6181331;23;20278;-37
2023/11/03 08:50:47;;;;;;;7.15;2.33;;;21.90;45.70;;;;;;6181926;23;20214;-39
2023/11/03 08:53:13;;;;;;;6.85;1.85;;;22.00;45.50;;;;;;6181162;23;20225;-37
2023/11/03 08:55:39;;;;;;;5.38;2.00;;;21.80;41.70;;;;;;6177913;23;20274;-38
2023/11/03 08:58:07;;;;;;;6.28;2.15;;;20.10;42.80;;;;;;6183155;23;20262;-37
2023/11/03 09:00:36;;;;;;;6.53;1.80;;;20.70;44.60;;;;;;6181077;23;20683;-38
2023/11/03 09:03:02;;;;;;;8.30;2.00;;;21.10;44.40;;;;;;6181959;23;20261;-37
2023/11/03 09:05:30;;;;;;;4.97;1.70;;;21.30;45.10;;;;;;6182792;23;20201;-39
2023/11/03 09:07:56;;;;;;;7.30;1.92;;;21.40;45.00;;;;;;6183121;23;20265;-38
2023/11/03 09:10:24;;;;;;;3.35;1.88;;;21.50;45.20;;;;;;6181794;23;20232;-38
2023/11/03 09:12:50;;;;;;;5.88;2.08;;;21.50;46.10;;;;;;6181520;23;20236;-39
2023/11/03 09:15:17;;;;;;;3.28;1.50;;;21.60;45.50;;;;;;6177402;23;20269;-38
2023/11/03 09:17:45;;;;;;;3.42;1.83;;;21.60;45.50;;;;;;6180843;23;20178;-38
2023/11/03 09:20:14;;;;;;;7.43;1.50;;;21.60;45.50;;;;;;6183083;23;20185;-33
2023/11/03 09:22:41;;;;;;;3.95;1.77;;;21.70;45.60;;;;;;6181389;23;20438;-38
2023/11/03 09:25:08;;;;;;;4.13;1.50;;;21.70;45.30;;;;;;6181806;23;20576;-38
2023/11/03 09:27:35;;;;;;;3.90;1.35;;;21.70;45.20;;;;;;6177523;23;20710;-39
2023/11/03 09:30:04;;;;;;;2.28;1.30;;;21.70;45.00;;;;;;6177742;23;20236;-37
2023/11/03 09:32:31;;;;;;;2.65;1.67;;;21.70;45.00;;;;;;6178676;23;20206;-38
2023/11/03 09:34:57;;;;;;;3.30;1.30;;;21.70;45.30;;;;;;6180288;23;20268;-38
2023/11/03 09:37:24;;;;;;;2.90;1.58;;;21.70;45.20;;;;;;6182017;23;20182;-37
2023/11/03 09:39:51;;;;;;;3.92;1.45;;;21.70;45.30;;;;;;6179158;23;20273;-37
2023/11/03 09:42:18;;;;;;;3.80;1.75;;;21.70;45.30;;;;;;6179391;23;20320;-38
2023/11/03 09:44:44;;;;;;;3.00;1.45;;;21.70;44.40;;;;;;6178375;23;20192;-38
2023/11/03 09:47:11;;;;;;;3.47;1.27;;;21.80;44.70;;;;;;6179181;23;20715;-37
2023/11/03 09:49:37;;;;;;;1.83;1.35;;;21.80;43.50;;;;;;6179024;23;20546;-38
2023/11/03 09:52:04;;;;;;;2.47;1.83;;;21.80;43.00;;;;;;6181712;23;20535;-40
2023/11/03 09:54:30;;;;;;;1.30;1.20;;;21.80;43.10;;;;;;6181487;23;20253;-40
2023/11/03 09:56:57;;;;;;;4.82;1.55;;;21.80;43.10;;;;;;6179752;23;20662;-40
2023/11/03 09:59:23;;;;;;;2.05;1.55;;;21.90;43.80;;;;;;6181371;23;20258;-41
2023/11/03 10:01:49;;;;;;;2.70;1.60;;;22.00;42.50;;;;;;6179532;23;20237;-42
2023/11/03 10:04:16;;;;;;;2.80;1.25;;;22.00;42.00;;;;;;6183491;23;20289;-43
2023/11/03 10:06:42;;;;;;;2.47;1.58;;;22.00;41.80;;;;;;6182517;23;20651;-38
2023/11/03 10:09:13;;;;;;;2.92;1.27;;;22.00;41.70;;;;;;6182439;23;20186;-36
2023/11/03 10:11:40;;;;;;;2.92;1.63;;;22.00;42.10;;;;;;6182100;23;20249;-38
2023/11/03 10:14:06;;;;;;;3.60;1.27;;;22.00;41.70;;;;;;6183152;23;20174;-38
2023/11/03 10:16:33;;;;;;;2.38;1.38;;;21.90;41.50;;;;;;6184084;23;20253;-37
2023/11/03 10:19:00;;;;;;;1.42;1.15;;;21.90;41.00;;;;;;6179659;23;20240;-37
2023/11/03 10:21:26;;;;;;;2.40;1.67;;;21.90;41.00;;;;;;6180513;23;20203;-37
2023/11/03 10:23:52;;;;;;;4.13;1.48;;;21.90;41.10;;;;;;6179687;23;20254;-37
2023/11/03 10:26:19;;;;;;;2.42;1.30;;;21.90;41.00;;;;;;6182717;23;20210;-40
2023/11/03 10:28:46;;;;;;;1.92;1.20;;;21.90;40.40;;;;;;6181783;23;20269;-41
2023/11/03 10:31:12;;;;;;;5.40;1.50;;;21.90;40.60;;;;;;6180734;23;20261;-40
2023/11/03 10:33:39;;;;;;;2.15;1.40;;;21.90;40.50;;;;;;6182833;23;20497;-40
2023/11/03 10:36:08;;;;;;;2.72;1.60;;;21.80;40.40;;;;;;6184713;23;20218;-40
2023/11/03 10:38:36;;;;;;;3.28;1.85;;;21.80;40.30;;;;;;6184100;23;20205;-40
2023/11/03 10:41:02;;;;;;;3.03;1.27;;;21.80;40.20;;;;;;6183733;23;20504;-40
2023/11/03 10:43:29;;;;;;;2.95;1.30;;;21.80;40.10;;;;;;6184826;23;20210;-40
2023/11/03 10:45:56;;;;;;;3.83;1.40;;;21.70;40.00;;;;;;6184653;23;20257;-39
2023/11/03 10:48:23;;;;;;;3.78;1.58;;;21.70;40.00;;;;;;6184050;23;20178;-40
2023/11/03 10:50:49;;;;;;;3.13;1.27;;;21.70;39.90;;;;;;6183328;23;20237;-38
2023/11/03 10:53:16;;;;;;;2.08;1.30;;;21.70;39.80;;;;;;6183899;23;20213;-40
2023/11/03 10:55:42;;;;;;;4.00;1.65;;;21.70;39.80;;;;;;6184388;23;20217;-40
2023/11/03 10:58:09;;;;;;;3.63;1.60;;;21.70;39.70;;;;;;6184801;23;20624;-38
2023/11/03 11:00:35;;;;;;;3.25;1.75;;;21.70;39.60;;;;;;6183685;23;20241;-40
2023/11/03 11:03:02;;;;;;;2.75;1.48;;;21.70;39.60;;;;;;6182324;23;20178;-40
2023/11/03 11:05:27;;;;;;;3.70;1.50;;;21.70;39.60;;;;;;6184812;23;20273;-40
2023/11/03 11:07:54;;;;;;;3.40;1.88;;;21.70;39.60;;;;;;6183661;23;20692;-39
2023/11/03 11:10:20;;;;;;;2.28;1.45;;;21.70;39.70;;;;;;6180119;23;20277;-36
2023/11/03 11:12:47;;;;;;;4.65;1.52;;;21.70;39.50;;;;;;6171467;23;20203;-38
2023/11/03 11:15:13;;;;;;;3.55;1.52;;;21.80;39.90;;;;;;6174365;23;20241;-39
2023/11/03 11:17:40;;;;;;;2.70;1.40;;;21.80;38.40;;;;;;6174495;23;20182;-41
2023/11/03 11:20:08;;;;;;;3.75;1.63;;;21.70;39.50;;;;;;6173393;23;20735;-37
2023/11/03 11:22:34;;;;;;;3.70;1.50;;;21.70;39.90;;;;;;6166796;23;20236;-39
2023/11/03 11:25:04;;;;;;;2.40;1.38;;;21.80;40.10;;;;;;6178122;23;20294;-41
2023/11/03 11:27:31;;;;;;;2.58;1.58;;;21.80;40.10;;;;;;6181016;23;20181;-47
2023/11/03 11:29:57;;;;;;;2.58;1.50;;;21.80;40.40;;;;;;6182608;23;20618;-44
2023/11/03 11:32:24;;;;;;;4.43;1.60;;;21.90;40.60;;;;;;6181800;23;20202;-37
2023/11/03 11:34:50;;;;;;;3.40;1.80;;;22.00;40.60;;;;;;6181896;23;20213;-42
2023/11/03 11:37:17;;;;;;;2.95;1.88;;;22.00;40.70;;;;;;6183445;23;20175;-39
2023/11/03 11:39:43;;;;;;;5.72;1.88;;;22.00;40.90;;;;;;6177849;23;20616;-33
2023/11/03 11:42:12;;;;;;;4.18;1.85;;;21.90;40.60;;;;;;6182449;23;20206;-34
2023/11/03 11:44:39;;;;;;;2.63;1.70;;;21.90;40.50;;;;;;6183396;23;20178;-40
2023/11/03 11:47:05;;;;;;;4.97;1.80;;;21.90;40.70;;;;;;6181263;23;20182;-38
2023/11/03 11:49:32;;;;;;;4.03;2.10;;;21.80;40.90;;;;;;6182814;23;20691;-41
2023/11/03 11:51:59;;;;;;;4.72;2.33;;;21.80;41.00;;;;;;6181530;23;20316;-38
2023/11/03 11:54:26;;;;;;;4.10;1.73;;;21.90;41.00;;;;;;6182025;23;20202;-34
2023/11/03 11:56:52;;;;;;;3.28;1.80;;;21.90;41.00;;;;;;6179792;23;20185;-37
2023/11/03 11:59:19;;;;;;;2.78;1.70;;;21.90;41.00;;;;;;6176690;23;20266;-36
2023/11/03 12:01:46;;;;;;;3.50;2.03;;;21.90;41.00;;;;;;6181426;23;20211;-36
2023/11/03 12:04:12;;;;;;;3.63;1.85;;;21.90;41.10;;;;;;6181926;23;20638;-37
2023/11/03 12:06:39;;;;;;;3.00;1.63;;;21.90;41.10;;;;;;6175240;23;20182;-38
2023/11/03 12:09:06;;;;;;;3.75;1.80;;;21.90;41.10;;;;;;6172906;23;20198;-34
2023/11/03 12:11:32;;;;;;;4.38;1.90;;;21.90;41.00;;;;;;6173639;23;20234;-36
2023/11/03 12:13:59;;;;;;;2.95;1.60;;;21.90;41.00;;;;;;6180172;23;20662;-37
2023/11/03 12:16:26;;;;;;;4.20;1.48;;;21.90;40.90;;;;;;6176645;23;20692;-38
2023/11/03 12:18:53;;;;;;;7.10;2.72;;;21.90;41.00;;;;;;6176700;23;20620;-36
2023/11/03 12:21:20;;;;;;;14.27;5.78;;;21.90;41.00;;;;;;6179188;23;20276;-39
2023/11/03 12:23:46;;;;;;;18.48;8.75;;;21.90;41.10;;;;;;6180024;23;20178;-37
2023/11/03 12:26:13;;;;;;;18.77;8.85;;;21.90;41.00;;;;;;6179653;23;20253;-37
2023/11/03 12:28:40;;;;;;;16.65;8.18;;;21.90;41.10;;;;;;6181943;23;20257;-36
2023/11/03 12:31:06;;;;;;;19.77;7.85;;;21.90;41.50;;;;;;6181815;23;20202;-37
2023/11/03 12:33:33;;;;;;;14.60;7.25;;;21.90;41.50;;;;;;6183661;23;20216;-37
2023/11/03 12:36:00;;;;;;;14.98;7.03;;;21.90;41.50;;;;;;6182908;23;20266;-37
2023/11/03 12:38:26;;;;;;;14.52;6.80;;;21.90;41.60;;;;;;6181537;23;20178;-38
2023/11/03 12:40:52;;;;;;;14.55;6.80;;;21.90;41.50;;;;;;6179488;23;20273;-35